Aviation Digital Data Service (ADDS)

Output produced by METARs form (1416 UTC 19 April 2019)
found at http://www.aviationweather.gov/metar/data/
 
METAR text: LEZL 191400Z 31004KT 240V010 9999 FEW025TCU SCT043 22/10 Q1013 NOSIG
Conditions at: LEZL (SEVILLA (CIV/MIL, ES) observed 1400 UTC 19 April 2019
Temperature: 22.0°C (72°F)
Dewpoint: 10.0°C (50°F) [RH = 46%]
Pressure (altimeter): 29.91 inches Hg (1013.0 mb)
Winds: from the NW (310 degrees) at 5 MPH (4 knots; 2.1 m/s)
Visibility: 6 or more miles (10+ km)
Ceiling: at least 12,000 feet AGL
Clouds: few clouds at 2500 feet AGL
scattered clouds at 4300 feet AGL
Weather: no significant weather observed at this time

METAR text: LEZL 191330Z 33006KT 280V030 9999 FEW025TCU SCT038 21/09 Q1013 NOSIG
Conditions at: LEZL (SEVILLA (CIV/MIL, ES) observed 1330 UTC 19 April 2019
Temperature: 21.0°C (70°F)
Dewpoint: 9.0°C (48°F) [RH = 46%]
Pressure (altimeter): 29.91 inches Hg (1013.0 mb)
Winds: from the NNW (330 degrees) at 7 MPH (6 knots; 3.1 m/s)
Visibility: 6 or more miles (10+ km)
Ceiling: at least 12,000 feet AGL
Clouds: few clouds at 2500 feet AGL
scattered clouds at 3800 feet AGL
Weather: no significant weather observed at this time

METAR text: LEZL 191300Z 27004KT 9999 SCT040 21/08 Q1014 NOSIG
Conditions at: LEZL (SEVILLA (CIV/MIL, ES) observed 1300 UTC 19 April 2019
Temperature: 21.0°C (70°F)
Dewpoint: 8.0°C (46°F) [RH = 43%]
Pressure (altimeter): 29.94 inches Hg (1014.0 mb)
Winds: from the W (270 degrees) at 5 MPH (4 knots; 2.1 m/s)
Visibility: 6 or more miles (10+ km)
Ceiling: at least 12,000 feet AGL
Clouds: scattered clouds at 4000 feet AGL
Weather: no significant weather observed at this time

METAR text: LEZL 191230Z 26004KT 9999 SCT036 20/11 Q1014 NOSIG
Conditions at: LEZL (SEVILLA (CIV/MIL, ES) observed 1230 UTC 19 April 2019
Temperature: 20.0°C (68°F)
Dewpoint: 11.0°C (52°F) [RH = 56%]
Pressure (altimeter): 29.94 inches Hg (1014.0 mb)
Winds: from the W (260 degrees) at 5 MPH (4 knots; 2.1 m/s)
Visibility: 6 or more miles (10+ km)
Ceiling: at least 12,000 feet AGL
Clouds: scattered clouds at 3600 feet AGL
Weather: no significant weather observed at this time

METAR text: LEZL 191200Z 09003KT 020V140 9999 SCT027 SCT033 19/10 Q1014 NOSIG
Conditions at: LEZL (SEVILLA (CIV/MIL, ES) observed 1200 UTC 19 April 2019
Temperature: 19.0°C (66°F)
Dewpoint: 10.0°C (50°F) [RH = 56%]
Pressure (altimeter): 29.94 inches Hg (1014.0 mb)
Winds: from the E (90 degrees) at 3 MPH (3 knots; 1.5 m/s)
Visibility: 6 or more miles (10+ km)
Ceiling: at least 12,000 feet AGL
Clouds: scattered clouds at 2700 feet AGL
scattered clouds at 3300 feet AGL
Weather: no significant weather observed at this time

METAR text: LEZL 191130Z 13002KT 9999 SCT029 SCT032 19/11 Q1015 NOSIG
Conditions at: LEZL (SEVILLA (CIV/MIL, ES) observed 1130 UTC 19 April 2019
Temperature: 19.0°C (66°F)
Dewpoint: 11.0°C (52°F) [RH = 60%]
Pressure (altimeter): 29.97 inches Hg (1015.0 mb)
Winds: from the SE (130 degrees) at 2 MPH (2 knots; 1.0 m/s)
Visibility: 6 or more miles (10+ km)
Ceiling: at least 12,000 feet AGL
Clouds: scattered clouds at 2900 feet AGL
scattered clouds at 3200 feet AGL
Weather: no significant weather observed at this time

METAR text: LEZL 191100Z 13005KT 020V190 9999 SCT028 19/12 Q1015 NOSIG
Conditions at: LEZL (SEVILLA (CIV/MIL, ES) observed 1100 UTC 19 April 2019
Temperature: 19.0°C (66°F)
Dewpoint: 12.0°C (54°F) [RH = 64%]
Pressure (altimeter): 29.97 inches Hg (1015.0 mb)
Winds: from the SE (130 degrees) at 6 MPH (5 knots; 2.6 m/s)
Visibility: 6 or more miles (10+ km)
Ceiling: at least 12,000 feet AGL
Clouds: scattered clouds at 2800 feet AGL
Weather: no significant weather observed at this time

METAR text: LEZL 191030Z 06003KT 9999 SCT025 18/11 Q1015 NOSIG
Conditions at: LEZL (SEVILLA (CIV/MIL, ES) observed 1030 UTC 19 April 2019
Temperature: 18.0°C (64°F)
Dewpoint: 11.0°C (52°F) [RH = 64%]
Pressure (altimeter): 29.97 inches Hg (1015.0 mb)
Winds: from the ENE (60 degrees) at 3 MPH (3 knots; 1.5 m/s)
Visibility: 6 or more miles (10+ km)
Ceiling: at least 12,000 feet AGL
Clouds: scattered clouds at 2500 feet AGL
Weather: no significant weather observed at this time

METAR text: LEZL 191000Z VRB01KT 9999 SCT020 18/11 Q1015 NOSIG
Conditions at: LEZL (SEVILLA (CIV/MIL, ES) observed 1000 UTC 19 April 2019
Temperature: 18.0°C (64°F)
Dewpoint: 11.0°C (52°F) [RH = 64%]
Pressure (altimeter): 29.97 inches Hg (1015.0 mb)
Winds: variable direction winds at 1 MPH (1 knots; 0.5 m/s)
Visibility: 6 or more miles (10+ km)
Ceiling: at least 12,000 feet AGL
Clouds: scattered clouds at 2000 feet AGL
Weather: no significant weather observed at this time

METAR text: LEZL 190930Z 07004KT 010V120 9999 SCT022 17/11 Q1015 NOSIG
Conditions at: LEZL (SEVILLA (CIV/MIL, ES) observed 0930 UTC 19 April 2019
Temperature: 17.0°C (63°F)
Dewpoint: 11.0°C (52°F) [RH = 68%]
Pressure (altimeter): 29.97 inches Hg (1015.0 mb)
Winds: from the ENE (70 degrees) at 5 MPH (4 knots; 2.1 m/s)
Visibility: 6 or more miles (10+ km)
Ceiling: at least 12,000 feet AGL
Clouds: scattered clouds at 2200 feet AGL
Weather: no significant weather observed at this time

METAR text: LEZL 190900Z 04005KT 010V070 9999 FEW020 16/11 Q1015 NOSIG
Conditions at: LEZL (SEVILLA (CIV/MIL, ES) observed 0900 UTC 19 April 2019
Temperature: 16.0°C (61°F)
Dewpoint: 11.0°C (52°F) [RH = 72%]
Pressure (altimeter): 29.97 inches Hg (1015.0 mb)
Winds: from the NE (40 degrees) at 6 MPH (5 knots; 2.6 m/s)
Visibility: 6 or more miles (10+ km)
Ceiling: at least 12,000 feet AGL
Clouds: few clouds at 2000 feet AGL
Weather: no significant weather observed at this time

METAR text: LEZL 190830Z 09003KT 030V120 9999 FEW025 15/12 Q1015 NOSIG
Conditions at: LEZL (SEVILLA (CIV/MIL, ES) observed 0830 UTC 19 April 2019
Temperature: 15.0°C (59°F)
Dewpoint: 12.0°C (54°F) [RH = 82%]
Pressure (altimeter): 29.97 inches Hg (1015.0 mb)
Winds: from the E (90 degrees) at 3 MPH (3 knots; 1.5 m/s)
Visibility: 6 or more miles (10+ km)
Ceiling: at least 12,000 feet AGL
Clouds: few clouds at 2500 feet AGL
Weather: no significant weather observed at this time

METAR text: LEZL 190800Z VRB02KT CAVOK 14/12 Q1015 NOSIG
Conditions at: LEZL (SEVILLA (CIV/MIL, ES) observed 0800 UTC 19 April 2019
Temperature: 14.0°C (57°F)
Dewpoint: 12.0°C (54°F) [RH = 88%]
Pressure (altimeter): 29.97 inches Hg (1015.0 mb)
Winds: variable direction winds at 2 MPH (2 knots; 1.0 m/s)
Visibility: 6 or more miles (10+ km)
Ceiling: ceiling and visibility are OK
Clouds: unknown
Weather: no significant weather observed at this time

METAR text: LEZL 190730Z 03004KT CAVOK 13/12 Q1015 NOSIG
Conditions at: LEZL (SEVILLA (CIV/MIL, ES) observed 0730 UTC 19 April 2019
Temperature: 13.0°C (55°F)
Dewpoint: 12.0°C (54°F) [RH = 94%]
Pressure (altimeter): 29.97 inches Hg (1015.0 mb)
Winds: from the NNE (30 degrees) at 5 MPH (4 knots; 2.1 m/s)
Visibility: 6 or more miles (10+ km)
Ceiling: ceiling and visibility are OK
Clouds: unknown
Weather: no significant weather observed at this time

METAR text: LEZL 190700Z VRB02KT CAVOK 12/11 Q1015 NOSIG
Conditions at: LEZL (SEVILLA (CIV/MIL, ES) observed 0700 UTC 19 April 2019
Temperature: 12.0°C (54°F)
Dewpoint: 11.0°C (52°F) [RH = 94%]
Pressure (altimeter): 29.97 inches Hg (1015.0 mb)
Winds: variable direction winds at 2 MPH (2 knots; 1.0 m/s)
Visibility: 6 or more miles (10+ km)
Ceiling: ceiling and visibility are OK
Clouds: unknown
Weather: no significant weather observed at this time

METAR text: LEZL 190630Z 04002KT CAVOK 11/11 Q1014 NOSIG
Conditions at: LEZL (SEVILLA (CIV/MIL, ES) observed 0630 UTC 19 April 2019
Temperature: 11.0°C (52°F)
Dewpoint: 11.0°C (52°F) [RH = 100%]
Pressure (altimeter): 29.94 inches Hg (1014.0 mb)
Winds: from the NE (40 degrees) at 2 MPH (2 knots; 1.0 m/s)
Visibility: 6 or more miles (10+ km)
Ceiling: ceiling and visibility are OK
Clouds: unknown
Weather: no significant weather observed at this time

METAR text: LEZL 190600Z 02005KT CAVOK 11/10 Q1014 NOSIG
Conditions at: LEZL (SEVILLA (CIV/MIL, ES) observed 0600 UTC 19 April 2019
Temperature: 11.0°C (52°F)
Dewpoint: 10.0°C (50°F) [RH = 94%]
Pressure (altimeter): 29.94 inches Hg (1014.0 mb)
Winds: from the NNE (20 degrees) at 6 MPH (5 knots; 2.6 m/s)
Visibility: 6 or more miles (10+ km)
Ceiling: ceiling and visibility are OK
Clouds: unknown
Weather: no significant weather observed at this time

METAR text: LEZL 190530Z 06003KT CAVOK 12/11 Q1014 NOSIG
Conditions at: LEZL (SEVILLA (CIV/MIL, ES) observed 0530 UTC 19 April 2019
Temperature: 12.0°C (54°F)
Dewpoint: 11.0°C (52°F) [RH = 94%]
Pressure (altimeter): 29.94 inches Hg (1014.0 mb)
Winds: from the ENE (60 degrees) at 3 MPH (3 knots; 1.5 m/s)
Visibility: 6 or more miles (10+ km)
Ceiling: ceiling and visibility are OK
Clouds: unknown
Weather: no significant weather observed at this time

METAR text: LEZL 190500Z 00000KT CAVOK 11/11 Q1014 NOSIG
Conditions at: LEZL (SEVILLA (CIV/MIL, ES) observed 0500 UTC 19 April 2019
Temperature: 11.0°C (52°F)
Dewpoint: 11.0°C (52°F) [RH = 100%]
Pressure (altimeter): 29.94 inches Hg (1014.0 mb)
Winds: calm
Visibility: 6 or more miles (10+ km)
Ceiling: ceiling and visibility are OK
Clouds: unknown
Weather: no significant weather observed at this time

METAR text: LEZL 190430Z 08003KT 050V110 CAVOK 12/11 Q1014 NOSIG
Conditions at: LEZL (SEVILLA (CIV/MIL, ES) observed 0430 UTC 19 April 2019
Temperature: 12.0°C (54°F)
Dewpoint: 11.0°C (52°F) [RH = 94%]
Pressure (altimeter): 29.94 inches Hg (1014.0 mb)
Winds: from the E (80 degrees) at 3 MPH (3 knots; 1.5 m/s)
Visibility: 6 or more miles (10+ km)
Ceiling: ceiling and visibility are OK
Clouds: unknown
Weather: no significant weather observed at this time

METAR text: LEZL 190400Z VRB02KT CAVOK 13/12 Q1014 NOSIG
Conditions at: LEZL (SEVILLA (CIV/MIL, ES) observed 0400 UTC 19 April 2019
Temperature: 13.0°C (55°F)
Dewpoint: 12.0°C (54°F) [RH = 94%]
Pressure (altimeter): 29.94 inches Hg (1014.0 mb)
Winds: variable direction winds at 2 MPH (2 knots; 1.0 m/s)
Visibility: 6 or more miles (10+ km)
Ceiling: ceiling and visibility are OK
Clouds: unknown
Weather: no significant weather observed at this time

METAR text: LEZL 190330Z 00000KT CAVOK 13/12 Q1014 NOSIG
Conditions at: LEZL (SEVILLA (CIV/MIL, ES) observed 0330 UTC 19 April 2019
Temperature: 13.0°C (55°F)
Dewpoint: 12.0°C (54°F) [RH = 94%]
Pressure (altimeter): 29.94 inches Hg (1014.0 mb)
Winds: calm
Visibility: 6 or more miles (10+ km)
Ceiling: ceiling and visibility are OK
Clouds: unknown
Weather: no significant weather observed at this time

METAR text: LEZL 190300Z 00000KT CAVOK 13/12 Q1014 NOSIG
Conditions at: LEZL (SEVILLA (CIV/MIL, ES) observed 0300 UTC 19 April 2019
Temperature: 13.0°C (55°F)
Dewpoint: 12.0°C (54°F) [RH = 94%]
Pressure (altimeter): 29.94 inches Hg (1014.0 mb)
Winds: calm
Visibility: 6 or more miles (10+ km)
Ceiling: ceiling and visibility are OK
Clouds: unknown
Weather: no significant weather observed at this time

METAR text: LEZL 190230Z VRB01KT CAVOK 13/11 Q1014 NOSIG
Conditions at: LEZL (SEVILLA (CIV/MIL, ES) observed 0230 UTC 19 April 2019
Temperature: 13.0°C (55°F)
Dewpoint: 11.0°C (52°F) [RH = 88%]
Pressure (altimeter): 29.94 inches Hg (1014.0 mb)
Winds: variable direction winds at 1 MPH (1 knots; 0.5 m/s)
Visibility: 6 or more miles (10+ km)
Ceiling: ceiling and visibility are OK
Clouds: unknown
Weather: no significant weather observed at this time

METAR text: LEZL 190200Z 00000KT CAVOK 13/11 Q1014 NOSIG
Conditions at: LEZL (SEVILLA (CIV/MIL, ES) observed 0200 UTC 19 April 2019
Temperature: 13.0°C (55°F)
Dewpoint: 11.0°C (52°F) [RH = 88%]
Pressure (altimeter): 29.94 inches Hg (1014.0 mb)
Winds: calm
Visibility: 6 or more miles (10+ km)
Ceiling: ceiling and visibility are OK
Clouds: unknown
Weather: no significant weather observed at this time

METAR text: LEZL 190130Z 18005KT CAVOK 12/11 Q1014 NOSIG
Conditions at: LEZL (SEVILLA (CIV/MIL, ES) observed 0130 UTC 19 April 2019
Temperature: 12.0°C (54°F)
Dewpoint: 11.0°C (52°F) [RH = 94%]
Pressure (altimeter): 29.94 inches Hg (1014.0 mb)
Winds: from the S (180 degrees) at 6 MPH (5 knots; 2.6 m/s)
Visibility: 6 or more miles (10+ km)
Ceiling: ceiling and visibility are OK
Clouds: unknown
Weather: no significant weather observed at this time

METAR text: LEZL 190100Z AUTO 17005KT 140V200 CAVOK 12/11 Q1014
Conditions at: LEZL (SEVILLA (CIV/MIL, ES) observed 0100 UTC 19 April 2019
Temperature: 12.0°C (54°F)
Dewpoint: 11.0°C (52°F) [RH = 94%]
Pressure (altimeter): 29.94 inches Hg (1014.0 mb)
Winds: from the S (170 degrees) at 6 MPH (5 knots; 2.6 m/s)
Visibility: 6 or more miles (10+ km)
Ceiling: ceiling and visibility are OK
Clouds: unknown
Weather: no significant weather observed at this time

METAR text: LEZL 190030Z AUTO 18006KT CAVOK 12/11 Q1015
Conditions at: LEZL (SEVILLA (CIV/MIL, ES) observed 0030 UTC 19 April 2019
Temperature: 12.0°C (54°F)
Dewpoint: 11.0°C (52°F) [RH = 94%]
Pressure (altimeter): 29.97 inches Hg (1015.0 mb)
Winds: from the S (180 degrees) at 7 MPH (6 knots; 3.1 m/s)
Visibility: 6 or more miles (10+ km)
Ceiling: ceiling and visibility are OK
Clouds: unknown
Weather: no significant weather observed at this time

METAR text: LEZL 190000Z AUTO 18006KT 9999 SCT046 12/11 Q1015
Conditions at: LEZL (SEVILLA (CIV/MIL, ES) observed 0000 UTC 19 April 2019
Temperature: 12.0°C (54°F)
Dewpoint: 11.0°C (52°F) [RH = 94%]
Pressure (altimeter): 29.97 inches Hg (1015.0 mb)
Winds: from the S (180 degrees) at 7 MPH (6 knots; 3.1 m/s)
Visibility: 6 or more miles (10+ km)
Ceiling: at least 12,000 feet AGL
Clouds: scattered clouds at 4600 feet AGL
Weather: no significant weather observed at this time

METAR text: LEZL 182330Z AUTO 19004KT 150V210 9999 BKN043 13/11 Q1015
Conditions at: LEZL (SEVILLA (CIV/MIL, ES) observed 2330 UTC 18 April 2019
Temperature: 13.0°C (55°F)
Dewpoint: 11.0°C (52°F) [RH = 88%]
Pressure (altimeter): 29.97 inches Hg (1015.0 mb)
Winds: from the S (190 degrees) at 5 MPH (4 knots; 2.1 m/s)
Visibility: 6 or more miles (10+ km)
Ceiling: 4300 feet AGL
Clouds: broken clouds at 4300 feet AGL
Weather: no significant weather observed at this time

METAR text: LEZL 182300Z VRB02KT 9999 FEW045 12/11 Q1015 NOSIG
Conditions at: LEZL (SEVILLA (CIV/MIL, ES) observed 2300 UTC 18 April 2019
Temperature: 12.0°C (54°F)
Dewpoint: 11.0°C (52°F) [RH = 94%]
Pressure (altimeter): 29.97 inches Hg (1015.0 mb)
Winds: variable direction winds at 2 MPH (2 knots; 1.0 m/s)
Visibility: 6 or more miles (10+ km)
Ceiling: at least 12,000 feet AGL
Clouds: few clouds at 4500 feet AGL
Weather: no significant weather observed at this time

METAR text: LEZL 182230Z 22004KT CAVOK 13/11 Q1015 NOSIG
Conditions at: LEZL (SEVILLA (CIV/MIL, ES) observed 2230 UTC 18 April 2019
Temperature: 13.0°C (55°F)
Dewpoint: 11.0°C (52°F) [RH = 88%]
Pressure (altimeter): 29.97 inches Hg (1015.0 mb)
Winds: from the SW (220 degrees) at 5 MPH (4 knots; 2.1 m/s)
Visibility: 6 or more miles (10+ km)
Ceiling: ceiling and visibility are OK
Clouds: unknown
Weather: no significant weather observed at this time

METAR text: LEZL 182200Z 19005KT CAVOK 13/11 Q1015 NOSIG
Conditions at: LEZL (SEVILLA (CIV/MIL, ES) observed 2200 UTC 18 April 2019
Temperature: 13.0°C (55°F)
Dewpoint: 11.0°C (52°F) [RH = 88%]
Pressure (altimeter): 29.97 inches Hg (1015.0 mb)
Winds: from the S (190 degrees) at 6 MPH (5 knots; 2.6 m/s)
Visibility: 6 or more miles (10+ km)
Ceiling: ceiling and visibility are OK
Clouds: unknown
Weather: no significant weather observed at this time

METAR text: LEZL 182130Z 17004KT 9999 FEW030 12/12 Q1015 NOSIG
Conditions at: LEZL (SEVILLA (CIV/MIL, ES) observed 2130 UTC 18 April 2019
Temperature: 12.0°C (54°F)
Dewpoint: 12.0°C (54°F) [RH = 100%]
Pressure (altimeter): 29.97 inches Hg (1015.0 mb)
Winds: from the S (170 degrees) at 5 MPH (4 knots; 2.1 m/s)
Visibility: 6 or more miles (10+ km)
Ceiling: at least 12,000 feet AGL
Clouds: few clouds at 3000 feet AGL
Weather: no significant weather observed at this time

METAR text: LEZL 182100Z 15003KT 9999 FEW030 13/11 Q1015 NOSIG
Conditions at: LEZL (SEVILLA (CIV/MIL, ES) observed 2100 UTC 18 April 2019
Temperature: 13.0°C (55°F)
Dewpoint: 11.0°C (52°F) [RH = 88%]
Pressure (altimeter): 29.97 inches Hg (1015.0 mb)
Winds: from the SSE (150 degrees) at 3 MPH (3 knots; 1.5 m/s)
Visibility: 6 or more miles (10+ km)
Ceiling: at least 12,000 feet AGL
Clouds: few clouds at 3000 feet AGL
Weather: no significant weather observed at this time

METAR text: LEZL 182030Z 20003KT 9999 FEW025 14/12 Q1014 NOSIG
Conditions at: LEZL (SEVILLA (CIV/MIL, ES) observed 2030 UTC 18 April 2019
Temperature: 14.0°C (57°F)
Dewpoint: 12.0°C (54°F) [RH = 88%]
Pressure (altimeter): 29.94 inches Hg (1014.0 mb)
Winds: from the SSW (200 degrees) at 3 MPH (3 knots; 1.5 m/s)
Visibility: 6 or more miles (10+ km)
Ceiling: at least 12,000 feet AGL
Clouds: few clouds at 2500 feet AGL
Weather: no significant weather observed at this time

METAR text: LEZL 182000Z 23003KT 210V280 9999 FEW025 14/12 Q1014 NOSIG
Conditions at: LEZL (SEVILLA (CIV/MIL, ES) observed 2000 UTC 18 April 2019
Temperature: 14.0°C (57°F)
Dewpoint: 12.0°C (54°F) [RH = 88%]
Pressure (altimeter): 29.94 inches Hg (1014.0 mb)
Winds: from the SW (230 degrees) at 3 MPH (3 knots; 1.5 m/s)
Visibility: 6 or more miles (10+ km)
Ceiling: at least 12,000 feet AGL
Clouds: few clouds at 2500 feet AGL
Weather: no significant weather observed at this time

METAR text: LEZL 181930Z 20003KT CAVOK 15/12 Q1013 NOSIG
Conditions at: LEZL (SEVILLA (CIV/MIL, ES) observed 1930 UTC 18 April 2019
Temperature: 15.0°C (59°F)
Dewpoint: 12.0°C (54°F) [RH = 82%]
Pressure (altimeter): 29.91 inches Hg (1013.0 mb)
Winds: from the SSW (200 degrees) at 3 MPH (3 knots; 1.5 m/s)
Visibility: 6 or more miles (10+ km)
Ceiling: ceiling and visibility are OK
Clouds: unknown
Weather: no significant weather observed at this time

METAR text: LEZL 181900Z 23004KT 200V280 9999 FEW048 15/13 Q1013 NOSIG
Conditions at: LEZL (SEVILLA (CIV/MIL, ES) observed 1900 UTC 18 April 2019
Temperature: 15.0°C (59°F)
Dewpoint: 13.0°C (55°F) [RH = 88%]
Pressure (altimeter): 29.91 inches Hg (1013.0 mb)
Winds: from the SW (230 degrees) at 5 MPH (4 knots; 2.1 m/s)
Visibility: 6 or more miles (10+ km)
Ceiling: at least 12,000 feet AGL
Clouds: few clouds at 4800 feet AGL
Weather: no significant weather observed at this time

METAR text: LEZL 181830Z 27004KT 230V300 CAVOK 16/13 Q1013 NOSIG
Conditions at: LEZL (SEVILLA (CIV/MIL, ES) observed 1830 UTC 18 April 2019
Temperature: 16.0°C (61°F)
Dewpoint: 13.0°C (55°F) [RH = 82%]
Pressure (altimeter): 29.91 inches Hg (1013.0 mb)
Winds: from the W (270 degrees) at 5 MPH (4 knots; 2.1 m/s)
Visibility: 6 or more miles (10+ km)
Ceiling: ceiling and visibility are OK
Clouds: unknown
Weather: no significant weather observed at this time

METAR text: LEZL 181800Z 35005KT 300V020 CAVOK 16/13 Q1013 NOSIG
Conditions at: LEZL (SEVILLA (CIV/MIL, ES) observed 1800 UTC 18 April 2019
Temperature: 16.0°C (61°F)
Dewpoint: 13.0°C (55°F) [RH = 82%]
Pressure (altimeter): 29.91 inches Hg (1013.0 mb)
Winds: from the N (350 degrees) at 6 MPH (5 knots; 2.6 m/s)
Visibility: 6 or more miles (10+ km)
Ceiling: ceiling and visibility are OK
Clouds: unknown
Weather: no significant weather observed at this time

METAR text: LEZL 181730Z VRB02KT CAVOK 16/12 Q1013 NOSIG
Conditions at: LEZL (SEVILLA (CIV/MIL, ES) observed 1730 UTC 18 April 2019
Temperature: 16.0°C (61°F)
Dewpoint: 12.0°C (54°F) [RH = 77%]
Pressure (altimeter): 29.91 inches Hg (1013.0 mb)
Winds: variable direction winds at 2 MPH (2 knots; 1.0 m/s)
Visibility: 6 or more miles (10+ km)
Ceiling: ceiling and visibility are OK
Clouds: unknown
Weather: no significant weather observed at this time

METAR text: LEZL 181700Z 30003KT 250V350 CAVOK 15/12 Q1013 NOSIG
Conditions at: LEZL (SEVILLA (CIV/MIL, ES) observed 1700 UTC 18 April 2019
Temperature: 15.0°C (59°F)
Dewpoint: 12.0°C (54°F) [RH = 82%]
Pressure (altimeter): 29.91 inches Hg (1013.0 mb)
Winds: from the WNW (300 degrees) at 3 MPH (3 knots; 1.5 m/s)
Visibility: 6 or more miles (10+ km)
Ceiling: ceiling and visibility are OK
Clouds: unknown
Weather: no significant weather observed at this time

METAR text: LEZL 181630Z 36002KT 9999 FEW020TCU SCT030 14/12 Q1013 RESHRA NOSIG
Conditions at: LEZL (SEVILLA (CIV/MIL, ES) observed 1630 UTC 18 April 2019
Temperature: 14.0°C (57°F)
Dewpoint: 12.0°C (54°F) [RH = 88%]
Pressure (altimeter): 29.91 inches Hg (1013.0 mb)
Winds: from the N (360 degrees) at 2 MPH (2 knots; 1.0 m/s)
Visibility: 6 or more miles (10+ km)
Ceiling: at least 12,000 feet AGL
Clouds: few clouds at 2000 feet AGL
scattered clouds at 3000 feet AGL
Weather: no significant weather observed at this time

METAR text: LEZL 181600Z VRB02KT 8000 SHRA FEW020TCU 14/12 Q1013 TEMPO 4000
Conditions at: LEZL (SEVILLA (CIV/MIL, ES) observed 1600 UTC 18 April 2019
Temperature: 14.0°C (57°F)
Dewpoint: 12.0°C (54°F) [RH = 88%]
Pressure (altimeter): 29.91 inches Hg (1013.0 mb)
Winds: variable direction winds at 2 MPH (2 knots; 1.0 m/s)
Visibility: 5 miles ( 8 km)
Ceiling: at least 12,000 feet AGL
Clouds: few clouds at 2000 feet AGL
Weather: SHRA  (rain showers)

METAR text: LEZL 181538Z 31005KT 280V340 8000 SHRA FEW030CB SCT049 14/12 Q1013 TEMPO 4000
Conditions at: LEZL (SEVILLA (CIV/MIL, ES) observed 1538 UTC 18 April 2019
Temperature: 14.0°C (57°F)
Dewpoint: 12.0°C (54°F) [RH = 88%]
Pressure (altimeter): 29.91 inches Hg (1013.0 mb)
Winds: from the NW (310 degrees) at 6 MPH (5 knots; 2.6 m/s)
Visibility: 5 miles ( 8 km)
Ceiling: at least 12,000 feet AGL
Clouds: few clouds at 3000 feet AGL
scattered clouds at 4900 feet AGL
Weather: SHRA  (rain showers)

METAR text: LEZL 181530Z 28006KT 9999 -RA VCTS FEW030CB 13/11 Q1013 RETS TEMPO 4000 SHRA
Conditions at: LEZL (SEVILLA (CIV/MIL, ES) observed 1530 UTC 18 April 2019
Temperature: 13.0°C (55°F)
Dewpoint: 11.0°C (52°F) [RH = 88%]
Pressure (altimeter): 29.91 inches Hg (1013.0 mb)
Winds: from the W (280 degrees) at 7 MPH (6 knots; 3.1 m/s)
Visibility: 6 or more miles (10+ km)
Ceiling: at least 12,000 feet AGL
Clouds: few clouds at 3000 feet AGL
Weather: -RA VCTS  (light rain, thunderstorm in vicinity)

METAR text: LEZL 181500Z 28010KT 9999 -TSRA SCT030CB BKN049 13/11 Q1013 RESHRA TEMPO 4000 SHRA
Conditions at: LEZL (SEVILLA (CIV/MIL, ES) observed 1500 UTC 18 April 2019
Temperature: 13.0°C (55°F)
Dewpoint: 11.0°C (52°F) [RH = 88%]
Pressure (altimeter): 29.91 inches Hg (1013.0 mb)
Winds: from the W (280 degrees) at 12 MPH (10 knots; 5.1 m/s)
Visibility: 6 or more miles (10+ km)
Ceiling: 4900 feet AGL
Clouds: scattered clouds at 3000 feet AGL
broken clouds at 4900 feet AGL
Weather: -TSRA  (light rain associated with thunderstorm(s))

METAR text: LEZL 181439Z 29018KT 260V320 1500 +TSRA SCT030CB BKN046 14/10 Q1013 TEMPO 4000 TSRA
Conditions at: LEZL (SEVILLA (CIV/MIL, ES) observed 1439 UTC 18 April 2019
Temperature: 14.0°C (57°F)
Dewpoint: 10.0°C (50°F) [RH = 77%]
Pressure (altimeter): 29.91 inches Hg (1013.0 mb)
Winds: from the WNW (290 degrees) at 21 MPH (18 knots; 9.3 m/s)
Visibility: 0.93 miles (1.50 km)
Ceiling: 4600 feet AGL
Clouds: scattered clouds at 3000 feet AGL
broken clouds at 4600 feet AGL
Weather: +TSRA  (heavy rain associated with thunderstorm(s))

METAR text: LEZL 181430Z 33006KT 230V040 3000 TSRA FEW030CB BKN046 13/10 Q1012 TEMPO 1500
Conditions at: LEZL (SEVILLA (CIV/MIL, ES) observed 1430 UTC 18 April 2019
Temperature: 13.0°C (55°F)
Dewpoint: 10.0°C (50°F) [RH = 82%]
Pressure (altimeter): 29.88 inches Hg (1012.0 mb)
Winds: from the NNW (330 degrees) at 7 MPH (6 knots; 3.1 m/s)
Visibility: 1.86 miles (2.99 km)
Ceiling: 4600 feet AGL
Clouds: few clouds at 3000 feet AGL
broken clouds at 4600 feet AGL
Weather: TSRA  (rain associated with thunderstorm(s))

METAR text: LEZL 181410Z 29016KT 250V320 3000 TSRA FEW030CB BKN040 15/09 Q1013 TEMPO 1500
Conditions at: LEZL (SEVILLA (CIV/MIL, ES) observed 1410 UTC 18 April 2019
Temperature: 15.0°C (59°F)
Dewpoint: 9.0°C (48°F) [RH = 67%]
Pressure (altimeter): 29.91 inches Hg (1013.0 mb)
Winds: from the WNW (290 degrees) at 18 MPH (16 knots; 8.2 m/s)
Visibility: 1.86 miles (2.99 km)
Ceiling: 4000 feet AGL
Clouds: few clouds at 3000 feet AGL
broken clouds at 4000 feet AGL
Weather: TSRA  (rain associated with thunderstorm(s))

METAR text: LEZL 181400Z 21008KT 170V270 9999 VCTS FEW030CB SCT042 19/10 Q1012 TEMPO 3000 TSRA
Conditions at: LEZL (SEVILLA (CIV/MIL, ES) observed 1400 UTC 18 April 2019
Temperature: 19.0°C (66°F)
Dewpoint: 10.0°C (50°F) [RH = 56%]
Pressure (altimeter): 29.88 inches Hg (1012.0 mb)
Winds: from the SSW (210 degrees) at 9 MPH (8 knots; 4.1 m/s)
Visibility: 6 or more miles (10+ km)
Ceiling: at least 12,000 feet AGL
Clouds: few clouds at 3000 feet AGL
scattered clouds at 4200 feet AGL
Weather: VCTS  (thunderstorm in vicinity)

METAR text: LEZL 181330Z 23007KT 160V290 9999 VCTS FEW030CB 20/10 Q1012 TEMPO 4000 TSRA
Conditions at: LEZL (SEVILLA (CIV/MIL, ES) observed 1330 UTC 18 April 2019
Temperature: 20.0°C (68°F)
Dewpoint: 10.0°C (50°F) [RH = 53%]
Pressure (altimeter): 29.88 inches Hg (1012.0 mb)
Winds: from the SW (230 degrees) at 8 MPH (7 knots; 3.6 m/s)
Visibility: 6 or more miles (10+ km)
Ceiling: at least 12,000 feet AGL
Clouds: few clouds at 3000 feet AGL
Weather: VCTS  (thunderstorm in vicinity)

METAR text: LEZL 181300Z 22005KT 170V260 9999 FEW030CB 19/10 Q1012 TEMPO 4000 TSRA
Conditions at: LEZL (SEVILLA (CIV/MIL, ES) observed 1300 UTC 18 April 2019
Temperature: 19.0°C (66°F)
Dewpoint: 10.0°C (50°F) [RH = 56%]
Pressure (altimeter): 29.88 inches Hg (1012.0 mb)
Winds: from the SW (220 degrees) at 6 MPH (5 knots; 2.6 m/s)
Visibility: 6 or more miles (10+ km)
Ceiling: at least 12,000 feet AGL
Clouds: few clouds at 3000 feet AGL
Weather: no significant weather observed at this time

METAR text: LEZL 181230Z 23004KT 9999 VCTS FEW030CB SCT035 20/11 Q1012 TEMPO 4000 SHRA
Conditions at: LEZL (SEVILLA (CIV/MIL, ES) observed 1230 UTC 18 April 2019
Temperature: 20.0°C (68°F)
Dewpoint: 11.0°C (52°F) [RH = 56%]
Pressure (altimeter): 29.88 inches Hg (1012.0 mb)
Winds: from the SW (230 degrees) at 5 MPH (4 knots; 2.1 m/s)
Visibility: 6 or more miles (10+ km)
Ceiling: at least 12,000 feet AGL
Clouds: few clouds at 3000 feet AGL
scattered clouds at 3500 feet AGL
Weather: VCTS  (thunderstorm in vicinity)

METAR text: LEZL 181200Z 21003KT 9999 SCT030TCU 19/10 Q1013 NOSIG
Conditions at: LEZL (SEVILLA (CIV/MIL, ES) observed 1200 UTC 18 April 2019
Temperature: 19.0°C (66°F)
Dewpoint: 10.0°C (50°F) [RH = 56%]
Pressure (altimeter): 29.91 inches Hg (1013.0 mb)
Winds: from the SSW (210 degrees) at 3 MPH (3 knots; 1.5 m/s)
Visibility: 6 or more miles (10+ km)
Ceiling: at least 12,000 feet AGL
Clouds: scattered clouds at 3000 feet AGL
Weather: no significant weather observed at this time

METAR text: LEZL 181130Z 35002KT 9999 SCT030 18/10 Q1013 NOSIG
Conditions at: LEZL (SEVILLA (CIV/MIL, ES) observed 1130 UTC 18 April 2019
Temperature: 18.0°C (64°F)
Dewpoint: 10.0°C (50°F) [RH = 59%]
Pressure (altimeter): 29.91 inches Hg (1013.0 mb)
Winds: from the N (350 degrees) at 2 MPH (2 knots; 1.0 m/s)
Visibility: 6 or more miles (10+ km)
Ceiling: at least 12,000 feet AGL
Clouds: scattered clouds at 3000 feet AGL
Weather: no significant weather observed at this time

METAR text: LEZL 181100Z 30003KT 9999 FEW024 18/11 Q1013 NOSIG
Conditions at: LEZL (SEVILLA (CIV/MIL, ES) observed 1100 UTC 18 April 2019
Temperature: 18.0°C (64°F)
Dewpoint: 11.0°C (52°F) [RH = 64%]
Pressure (altimeter): 29.91 inches Hg (1013.0 mb)
Winds: from the WNW (300 degrees) at 3 MPH (3 knots; 1.5 m/s)
Visibility: 6 or more miles (10+ km)
Ceiling: at least 12,000 feet AGL
Clouds: few clouds at 2400 feet AGL
Weather: no significant weather observed at this time

METAR text: LEZL 181030Z 22002KT 9999 FEW013 18/12 Q1014 NOSIG
Conditions at: LEZL (SEVILLA (CIV/MIL, ES) observed 1030 UTC 18 April 2019
Temperature: 18.0°C (64°F)
Dewpoint: 12.0°C (54°F) [RH = 68%]
Pressure (altimeter): 29.94 inches Hg (1014.0 mb)
Winds: from the SW (220 degrees) at 2 MPH (2 knots; 1.0 m/s)
Visibility: 6 or more miles (10+ km)
Ceiling: at least 12,000 feet AGL
Clouds: few clouds at 1300 feet AGL
Weather: no significant weather observed at this time

METAR text: LEZL 181000Z 15003KT 090V210 9999 FEW013 17/14 Q1014 NOSIG
Conditions at: LEZL (SEVILLA (CIV/MIL, ES) observed 1000 UTC 18 April 2019
Temperature: 17.0°C (63°F)
Dewpoint: 14.0°C (57°F) [RH = 82%]
Pressure (altimeter): 29.94 inches Hg (1014.0 mb)
Winds: from the SSE (150 degrees) at 3 MPH (3 knots; 1.5 m/s)
Visibility: 6 or more miles (10+ km)
Ceiling: at least 12,000 feet AGL
Clouds: few clouds at 1300 feet AGL
Weather: no significant weather observed at this time

METAR text: LEZL 180930Z 24004KT 190V280 9999 FEW013 15/13 Q1014 NOSIG
Conditions at: LEZL (SEVILLA (CIV/MIL, ES) observed 0930 UTC 18 April 2019
Temperature: 15.0°C (59°F)
Dewpoint: 13.0°C (55°F) [RH = 88%]
Pressure (altimeter): 29.94 inches Hg (1014.0 mb)
Winds: from the WSW (240 degrees) at 5 MPH (4 knots; 2.1 m/s)
Visibility: 6 or more miles (10+ km)
Ceiling: at least 12,000 feet AGL
Clouds: few clouds at 1300 feet AGL
Weather: no significant weather observed at this time

METAR text: LEZL 180900Z VRB02KT 9999 FEW030 15/12 Q1014 NOSIG
Conditions at: LEZL (SEVILLA (CIV/MIL, ES) observed 0900 UTC 18 April 2019
Temperature: 15.0°C (59°F)
Dewpoint: 12.0°C (54°F) [RH = 82%]
Pressure (altimeter): 29.94 inches Hg (1014.0 mb)
Winds: variable direction winds at 2 MPH (2 knots; 1.0 m/s)
Visibility: 6 or more miles (10+ km)
Ceiling: at least 12,000 feet AGL
Clouds: few clouds at 3000 feet AGL
Weather: no significant weather observed at this time

METAR text: LEZL 180830Z 04003KT 340V100 CAVOK 15/13 Q1013 NOSIG
Conditions at: LEZL (SEVILLA (CIV/MIL, ES) observed 0830 UTC 18 April 2019
Temperature: 15.0°C (59°F)
Dewpoint: 13.0°C (55°F) [RH = 88%]
Pressure (altimeter): 29.91 inches Hg (1013.0 mb)
Winds: from the NE (40 degrees) at 3 MPH (3 knots; 1.5 m/s)
Visibility: 6 or more miles (10+ km)
Ceiling: ceiling and visibility are OK
Clouds: unknown
Weather: no significant weather observed at this time

METAR text: LEZL 180800Z 01005KT 290V040 9999 FEW020 14/13 Q1013 NOSIG
Conditions at: LEZL (SEVILLA (CIV/MIL, ES) observed 0800 UTC 18 April 2019
Temperature: 14.0°C (57°F)
Dewpoint: 13.0°C (55°F) [RH = 94%]
Pressure (altimeter): 29.91 inches Hg (1013.0 mb)
Winds: from the N (10 degrees) at 6 MPH (5 knots; 2.6 m/s)
Visibility: 6 or more miles (10+ km)
Ceiling: at least 12,000 feet AGL
Clouds: few clouds at 2000 feet AGL
Weather: no significant weather observed at this time

METAR text: LEZL 180730Z 34004KT 300V010 9999 -RA BKN016 14/13 Q1013 NOSIG
Conditions at: LEZL (SEVILLA (CIV/MIL, ES) observed 0730 UTC 18 April 2019
Temperature: 14.0°C (57°F)
Dewpoint: 13.0°C (55°F) [RH = 94%]
Pressure (altimeter): 29.91 inches Hg (1013.0 mb)
Winds: from the NNW (340 degrees) at 5 MPH (4 knots; 2.1 m/s)
Visibility: 6 or more miles (10+ km)
Ceiling: 1600 feet AGL
Clouds: broken clouds at 1600 feet AGL
Weather: -RA  (light rain)

METAR text: LEZL 180700Z 30003KT 260V330 9999 -RA SCT014 SCT048 14/13 Q1013 NOSIG
Conditions at: LEZL (SEVILLA (CIV/MIL, ES) observed 0700 UTC 18 April 2019
Temperature: 14.0°C (57°F)
Dewpoint: 13.0°C (55°F) [RH = 94%]
Pressure (altimeter): 29.91 inches Hg (1013.0 mb)
Winds: from the WNW (300 degrees) at 3 MPH (3 knots; 1.5 m/s)
Visibility: 6 or more miles (10+ km)
Ceiling: at least 12,000 feet AGL
Clouds: scattered clouds at 1400 feet AGL
scattered clouds at 4800 feet AGL
Weather: -RA  (light rain)

METAR text: LEZL 180630Z 17003KT 9999 -RA SCT020 SCT048 13/13 Q1013 NOSIG
Conditions at: LEZL (SEVILLA (CIV/MIL, ES) observed 0630 UTC 18 April 2019
Temperature: 13.0°C (55°F)
Dewpoint: 13.0°C (55°F) [RH = 100%]
Pressure (altimeter): 29.91 inches Hg (1013.0 mb)
Winds: from the S (170 degrees) at 3 MPH (3 knots; 1.5 m/s)
Visibility: 6 or more miles (10+ km)
Ceiling: at least 12,000 feet AGL
Clouds: scattered clouds at 2000 feet AGL
scattered clouds at 4800 feet AGL
Weather: -RA  (light rain)

METAR text: LEZL 180600Z 17002KT 9999 -RA BKN022 13/12 Q1013 NOSIG
Conditions at: LEZL (SEVILLA (CIV/MIL, ES) observed 0600 UTC 18 April 2019
Temperature: 13.0°C (55°F)
Dewpoint: 12.0°C (54°F) [RH = 94%]
Pressure (altimeter): 29.91 inches Hg (1013.0 mb)
Winds: from the S (170 degrees) at 2 MPH (2 knots; 1.0 m/s)
Visibility: 6 or more miles (10+ km)
Ceiling: 2200 feet AGL
Clouds: broken clouds at 2200 feet AGL
Weather: -RA  (light rain)

METAR text: LEZL 180530Z 00000KT 9999 SCT025 13/12 Q1012 NOSIG
Conditions at: LEZL (SEVILLA (CIV/MIL, ES) observed 0530 UTC 18 April 2019
Temperature: 13.0°C (55°F)
Dewpoint: 12.0°C (54°F) [RH = 94%]
Pressure (altimeter): 29.88 inches Hg (1012.0 mb)
Winds: calm
Visibility: 6 or more miles (10+ km)
Ceiling: at least 12,000 feet AGL
Clouds: scattered clouds at 2500 feet AGL
Weather: no significant weather observed at this time

METAR text: LEZL 180500Z 00000KT 9999 SCT027 13/12 Q1012 NOSIG
Conditions at: LEZL (SEVILLA (CIV/MIL, ES) observed 0500 UTC 18 April 2019
Temperature: 13.0°C (55°F)
Dewpoint: 12.0°C (54°F) [RH = 94%]
Pressure (altimeter): 29.88 inches Hg (1012.0 mb)
Winds: calm
Visibility: 6 or more miles (10+ km)
Ceiling: at least 12,000 feet AGL
Clouds: scattered clouds at 2700 feet AGL
Weather: no significant weather observed at this time

METAR text: LEZL 180430Z 00000KT 9999 FEW028 13/12 Q1012 NOSIG
Conditions at: LEZL (SEVILLA (CIV/MIL, ES) observed 0430 UTC 18 April 2019
Temperature: 13.0°C (55°F)
Dewpoint: 12.0°C (54°F) [RH = 94%]
Pressure (altimeter): 29.88 inches Hg (1012.0 mb)
Winds: calm
Visibility: 6 or more miles (10+ km)
Ceiling: at least 12,000 feet AGL
Clouds: few clouds at 2800 feet AGL
Weather: no significant weather observed at this time

METAR text: LEZL 180400Z 00000KT 9999 FEW030 13/12 Q1012 NOSIG
Conditions at: LEZL (SEVILLA (CIV/MIL, ES) observed 0400 UTC 18 April 2019
Temperature: 13.0°C (55°F)
Dewpoint: 12.0°C (54°F) [RH = 94%]
Pressure (altimeter): 29.88 inches Hg (1012.0 mb)
Winds: calm
Visibility: 6 or more miles (10+ km)
Ceiling: at least 12,000 feet AGL
Clouds: few clouds at 3000 feet AGL
Weather: no significant weather observed at this time

METAR text: LEZL 180330Z 00000KT 9999 FEW030 13/12 Q1012 NOSIG
Conditions at: LEZL (SEVILLA (CIV/MIL, ES) observed 0330 UTC 18 April 2019
Temperature: 13.0°C (55°F)
Dewpoint: 12.0°C (54°F) [RH = 94%]
Pressure (altimeter): 29.88 inches Hg (1012.0 mb)
Winds: calm
Visibility: 6 or more miles (10+ km)
Ceiling: at least 12,000 feet AGL
Clouds: few clouds at 3000 feet AGL
Weather: no significant weather observed at this time

METAR text: LEZL 180300Z 27003KT 9999 FEW030 13/12 Q1013 NOSIG
Conditions at: LEZL (SEVILLA (CIV/MIL, ES) observed 0300 UTC 18 April 2019
Temperature: 13.0°C (55°F)
Dewpoint: 12.0°C (54°F) [RH = 94%]
Pressure (altimeter): 29.91 inches Hg (1013.0 mb)
Winds: from the W (270 degrees) at 3 MPH (3 knots; 1.5 m/s)
Visibility: 6 or more miles (10+ km)
Ceiling: at least 12,000 feet AGL
Clouds: few clouds at 3000 feet AGL
Weather: no significant weather observed at this time

METAR text: LEZL 180230Z 00000KT 9999 FEW025 SCT040 15/12 Q1013 NOSIG
Conditions at: LEZL (SEVILLA (CIV/MIL, ES) observed 0230 UTC 18 April 2019
Temperature: 15.0°C (59°F)
Dewpoint: 12.0°C (54°F) [RH = 82%]
Pressure (altimeter): 29.91 inches Hg (1013.0 mb)
Winds: calm
Visibility: 6 or more miles (10+ km)
Ceiling: at least 12,000 feet AGL
Clouds: few clouds at 2500 feet AGL
scattered clouds at 4000 feet AGL
Weather: no significant weather observed at this time

Forecast for: LEZL (SEVILLA (CIV/MIL, ES)
Text: TAF LEZL 190800Z 1909/2009 VRB03KT 9999 FEW025 SCT045 TX21/1914Z TN10/2006Z
Forecast period: 0900 UTC 19 April 2019 to 0900 UTC 20 April 2019
Forecast type: FROM: standard forecast or significant change
Winds: variable direction winds at 3 MPH (3 knots; 1.5 m/s)
Visibility: 6 or more miles 10+ km)
Ceiling: at least 12,000 feet AGL
Clouds: few clouds at 2500 feet AGL
scattered clouds at 4500 feet AGL
Weather: no significant weather forecast for this period
Text: PROB40
Forecast period: 1300 to 2000 UTC 19 April 2019
Forecast type: TEMPORARY: The following changes expected for less than half the time period
Visibility: 2.49 miles (4.01 km)
Ceiling: 3500 feet AGL
Clouds: scattered clouds at 2000 feet AGL
broken clouds at 3500 feet AGL
Weather: SHRA  (rain showers)
Text: TEMPO 1913/1920 4000 SHRA SCT020TCU BKN035
Forecast period: 1500 to 1900 UTC 19 April 2019
Forecast type: TEMPORARY: The following changes expected for less than half the time period
Winds: from the NNW (340 degrees) at 17 MPH (15 knots; 7.7 m/s)
gusting to 29 MPH (25 knots; 12.9 m/s)
Visibility: 1.86 miles (2.99 km)
Ceiling: 3000 feet AGL
Clouds: scattered clouds at 2000 feet AGL
broken clouds at 3000 feet AGL
Weather: TSRA  (rain associated with thunderstorm(s))